sensor_id;sensor_type;location;lat;lon;timestamp;P1;durP1;ratioP1;P2;durP2;ratioP2
39032;SDS011;24794;51.982;5.878;2023-07-22T00:00:32;4.95;;;3.63;;
39032;SDS011;24794;51.982;5.878;2023-07-22T00:01:33;4.40;;;3.22;;
39032;SDS011;24794;51.982;5.878;2023-07-22T00:02:33;4.75;;;3.55;;
39032;SDS011;24794;51.982;5.878;2023-07-22T00:03:34;4.93;;;3.80;;
39032;SDS011;24794;51.982;5.878;2023-07-22T00:04:34;5.95;;;4.00;;
39032;SDS011;24794;51.982;5.878;2023-07-22T00:05:35;5.35;;;3.30;;
39032;SDS011;24794;51.982;5.878;2023-07-22T00:06:35;5.40;;;3.22;;
39032;SDS011;24794;51.982;5.878;2023-07-22T00:07:36;5.32;;;3.80;;
39032;SDS011;24794;51.982;5.878;2023-07-22T00:08:37;4.85;;;3.42;;
39032;SDS011;24794;51.982;5.878;2023-07-22T00:09:38;4.70;;;3.28;;
39032;SDS011;24794;51.982;5.878;2023-07-22T00:10:42;5.65;;;3.63;;
39032;SDS011;24794;51.982;5.878;2023-07-22T00:11:43;5.22;;;3.88;;
39032;SDS011;24794;51.982;5.878;2023-07-22T00:12:43;5.10;;;3.30;;
39032;SDS011;24794;51.982;5.878;2023-07-22T00:13:44;5.35;;;3.80;;
39032;SDS011;24794;51.982;5.878;2023-07-22T00:14:44;4.97;;;3.45;;
39032;SDS011;24794;51.982;5.878;2023-07-22T00:15:45;8.32;;;3.97;;
39032;SDS011;24794;51.982;5.878;2023-07-22T00:16:45;5.35;;;3.60;;
39032;SDS011;24794;51.982;5.878;2023-07-22T00:17:46;4.55;;;3.75;;
39032;SDS011;24794;51.982;5.878;2023-07-22T00:18:46;6.45;;;3.80;;
39032;SDS011;24794;51.982;5.878;2023-07-22T00:19:47;5.25;;;3.22;;
39032;SDS011;24794;51.982;5.878;2023-07-22T00:20:48;5.10;;;3.53;;
39032;SDS011;24794;51.982;5.878;2023-07-22T00:21:48;6.75;;;4.00;;
39032;SDS011;24794;51.982;5.878;2023-07-22T00:22:49;5.65;;;3.70;;
39032;SDS011;24794;51.982;5.878;2023-07-22T00:23:50;6.78;;;4.13;;
39032;SDS011;24794;51.982;5.878;2023-07-22T00:24:50;6.63;;;3.92;;
39032;SDS011;24794;51.982;5.878;2023-07-22T00:25:51;5.72;;;3.75;;
39032;SDS011;24794;51.982;5.878;2023-07-22T00:26:51;5.75;;;3.65;;
39032;SDS011;24794;51.982;5.878;2023-07-22T00:27:52;5.82;;;3.92;;
39032;SDS011;24794;51.982;5.878;2023-07-22T00:28:52;5.95;;;3.65;;
39032;SDS011;24794;51.982;5.878;2023-07-22T00:29:53;6.22;;;3.90;;
39032;SDS011;24794;51.982;5.878;2023-07-22T00:30:53;6.72;;;3.95;;
39032;SDS011;24794;51.982;5.878;2023-07-22T00:31:54;6.18;;;3.78;;
39032;SDS011;24794;51.982;5.878;2023-07-22T00:32:55;5.10;;;3.50;;
39032;SDS011;24794;51.982;5.878;2023-07-22T00:33:55;5.10;;;4.00;;
39032;SDS011;24794;51.982;5.878;2023-07-22T00:34:56;5.72;;;4.05;;
39032;SDS011;24794;51.982;5.878;2023-07-22T00:35:56;5.60;;;3.85;;
39032;SDS011;24794;51.982;5.878;2023-07-22T00:36:57;5.85;;;3.95;;
39032;SDS011;24794;51.982;5.878;2023-07-22T00:37:58;5.50;;;3.90;;
39032;SDS011;24794;51.982;5.878;2023-07-22T00:38:59;5.30;;;3.88;;
39032;SDS011;24794;51.982;5.878;2023-07-22T00:40:01;5.82;;;3.67;;
39032;SDS011;24794;51.982;5.878;2023-07-22T00:41:05;7.35;;;3.80;;
39032;SDS011;24794;51.982;5.878;2023-07-22T00:42:07;7.18;;;4.25;;
39032;SDS011;24794;51.982;5.878;2023-07-22T00:43:08;5.60;;;3.85;;
39032;SDS011;24794;51.982;5.878;2023-07-22T00:44:08;5.97;;;4.40;;
39032;SDS011;24794;51.982;5.878;2023-07-22T00:45:09;5.47;;;3.83;;
39032;SDS011;24794;51.982;5.878;2023-07-22T00:46:09;5.43;;;3.67;;
39032;SDS011;24794;51.982;5.878;2023-07-22T00:47:10;5.30;;;3.72;;
39032;SDS011;24794;51.982;5.878;2023-07-22T00:48:10;5.28;;;3.67;;
39032;SDS011;24794;51.982;5.878;2023-07-22T00:49:14;6.38;;;3.83;;
39032;SDS011;24794;51.982;5.878;2023-07-22T00:50:15;5.32;;;3.90;;
39032;SDS011;24794;51.982;5.878;2023-07-22T00:51:17;5.10;;;4.18;;
39032;SDS011;24794;51.982;5.878;2023-07-22T00:52:18;6.88;;;4.13;;
39032;SDS011;24794;51.982;5.878;2023-07-22T00:53:18;6.82;;;3.95;;
39032;SDS011;24794;51.982;5.878;2023-07-22T00:54:19;8.65;;;4.40;;
39032;SDS011;24794;51.982;5.878;2023-07-22T00:55:20;6.97;;;4.00;;
39032;SDS011;24794;51.982;5.878;2023-07-22T00:56:21;6.63;;;4.10;;
39032;SDS011;24794;51.982;5.878;2023-07-22T00:57:22;5.88;;;4.00;;
39032;SDS011;24794;51.982;5.878;2023-07-22T00:58:22;6.05;;;3.72;;
39032;SDS011;24794;51.982;5.878;2023-07-22T00:59:23;8.60;;;4.50;;
39032;SDS011;24794;51.982;5.878;2023-07-22T01:00:24;7.30;;;4.10;;
39032;SDS011;24794;51.982;5.878;2023-07-22T01:01:25;6.70;;;4.60;;
39032;SDS011;24794;51.982;5.878;2023-07-22T01:02:25;5.18;;;3.90;;
39032;SDS011;24794;51.982;5.878;2023-07-22T01:03:26;5.57;;;3.88;;
39032;SDS011;24794;51.982;5.878;2023-07-22T01:04:26;6.70;;;4.35;;
39032;SDS011;24794;51.982;5.878;2023-07-22T01:05:27;7.22;;;4.72;;
39032;SDS011;24794;51.982;5.878;2023-07-22T01:06:28;6.75;;;4.63;;
39032;SDS011;24794;51.982;5.878;2023-07-22T01:07:30;6.88;;;4.78;;
39032;SDS011;24794;51.982;5.878;2023-07-22T01:08:30;7.00;;;4.22;;
39032;SDS011;24794;51.982;5.878;2023-07-22T01:09:35;6.45;;;4.25;;
39032;SDS011;24794;51.982;5.878;2023-07-22T01:10:39;7.32;;;4.10;;
39032;SDS011;24794;51.982;5.878;2023-07-22T01:11:40;6.18;;;4.07;;
39032;SDS011;24794;51.982;5.878;2023-07-22T01:12:40;5.93;;;3.90;;
39032;SDS011;24794;51.982;5.878;2023-07-22T01:13:41;7.00;;;4.50;;
39032;SDS011;24794;51.982;5.878;2023-07-22T01:14:41;6.85;;;4.57;;
39032;SDS011;24794;51.982;5.878;2023-07-22T01:15:42;6.40;;;4.70;;
39032;SDS011;24794;51.982;5.878;2023-07-22T01:16:43;8.50;;;4.88;;
39032;SDS011;24794;51.982;5.878;2023-07-22T01:17:44;5.60;;;4.32;;
39032;SDS011;24794;51.982;5.878;2023-07-22T01:18:45;6.70;;;4.18;;
39032;SDS011;24794;51.982;5.878;2023-07-22T01:19:46;7.85;;;4.45;;
39032;SDS011;24794;51.982;5.878;2023-07-22T01:20:47;7.50;;;4.80;;
39032;SDS011;24794;51.982;5.878;2023-07-22T01:21:48;7.78;;;4.55;;
39032;SDS011;24794;51.982;5.878;2023-07-22T01:22:53;7.70;;;4.50;;
39032;SDS011;24794;51.982;5.878;2023-07-22T01:23:54;7.22;;;4.60;;
39032;SDS011;24794;51.982;5.878;2023-07-22T01:24:55;6.55;;;4.90;;
39032;SDS011;24794;51.982;5.878;2023-07-22T01:25:56;6.78;;;4.53;;
39032;SDS011;24794;51.982;5.878;2023-07-22T01:26:57;7.38;;;4.40;;
39032;SDS011;24794;51.982;5.878;2023-07-22T01:27:58;7.70;;;4.72;;
39032;SDS011;24794;51.982;5.878;2023-07-22T01:29:05;7.13;;;4.82;;
39032;SDS011;24794;51.982;5.878;2023-07-22T01:30:06;7.03;;;4.65;;
39032;SDS011;24794;51.982;5.878;2023-07-22T01:31:09;7.13;;;4.65;;
39032;SDS011;24794;51.982;5.878;2023-07-22T01:32:10;7.47;;;4.88;;
39032;SDS011;24794;51.982;5.878;2023-07-22T01:33:10;9.50;;;5.22;;
39032;SDS011;24794;51.982;5.878;2023-07-22T01:34:11;7.78;;;5.10;;
39032;SDS011;24794;51.982;5.878;2023-07-22T01:35:12;6.55;;;4.93;;
39032;SDS011;24794;51.982;5.878;2023-07-22T01:36:13;6.95;;;4.70;;
39032;SDS011;24794;51.982;5.878;2023-07-22T01:37:13;7.45;;;5.25;;
39032;SDS011;24794;51.982;5.878;2023-07-22T01:38:14;7.50;;;5.10;;
39032;SDS011;24794;51.982;5.878;2023-07-22T01:39:15;9.15;;;4.97;;
39032;SDS011;24794;51.982;5.878;2023-07-22T01:40:16;7.50;;;5.07;;
39032;SDS011;24794;51.982;5.878;2023-07-22T01:41:17;7.90;;;4.82;;
39032;SDS011;24794;51.982;5.878;2023-07-22T01:42:18;7.90;;;5.32;;
39032;SDS011;24794;51.982;5.878;2023-07-22T01:43:18;6.75;;;4.72;;
39032;SDS011;24794;51.982;5.878;2023-07-22T01:44:19;7.55;;;5.00;;
39032;SDS011;24794;51.982;5.878;2023-07-22T01:45:19;7.63;;;4.90;;
39032;SDS011;24794;51.982;5.878;2023-07-22T01:46:20;7.30;;;5.07;;
39032;SDS011;24794;51.982;5.878;2023-07-22T01:47:21;7.10;;;4.50;;
39032;SDS011;24794;51.982;5.878;2023-07-22T01:48:22;10.43;;;4.68;;
39032;SDS011;24794;51.982;5.878;2023-07-22T01:49:23;7.65;;;4.70;;
39032;SDS011;24794;51.982;5.878;2023-07-22T01:50:26;6.93;;;5.00;;
39032;SDS011;24794;51.982;5.878;2023-07-22T01:51:27;6.43;;;4.68;;
39032;SDS011;24794;51.982;5.878;2023-07-22T01:52:28;7.55;;;4.85;;
39032;SDS011;24794;51.982;5.878;2023-07-22T01:53:29;7.57;;;4.97;;
39032;SDS011;24794;51.982;5.878;2023-07-22T01:54:29;8.25;;;4.90;;
39032;SDS011;24794;51.982;5.878;2023-07-22T01:55:30;7.30;;;5.00;;
39032;SDS011;24794;51.982;5.878;2023-07-22T01:56:30;7.65;;;4.78;;
39032;SDS011;24794;51.982;5.878;2023-07-22T01:57:34;8.73;;;5.40;;
39032;SDS011;24794;51.982;5.878;2023-07-22T01:58:34;9.00;;;5.32;;
39032;SDS011;24794;51.982;5.878;2023-07-22T01:59:35;8.23;;;5.50;;
39032;SDS011;24794;51.982;5.878;2023-07-22T02:00:35;7.53;;;5.40;;
39032;SDS011;24794;51.982;5.878;2023-07-22T02:01:36;6.85;;;5.13;;
39032;SDS011;24794;51.982;5.878;2023-07-22T02:02:36;8.48;;;5.30;;
39032;SDS011;24794;51.982;5.878;2023-07-22T02:03:37;8.95;;;5.43;;
39032;SDS011;24794;51.982;5.878;2023-07-22T02:04:38;8.10;;;5.45;;
39032;SDS011;24794;51.982;5.878;2023-07-22T02:05:38;7.80;;;4.95;;
39032;SDS011;24794;51.982;5.878;2023-07-22T02:06:38;7.95;;;5.63;;
39032;SDS011;24794;51.982;5.878;2023-07-22T02:07:39;10.10;;;6.10;;
39032;SDS011;24794;51.982;5.878;2023-07-22T02:08:40;9.77;;;5.70;;
39032;SDS011;24794;51.982;5.878;2023-07-22T02:09:40;8.10;;;6.20;;
39032;SDS011;24794;51.982;5.878;2023-07-22T02:10:41;8.77;;;6.03;;
39032;SDS011;24794;51.982;5.878;2023-07-22T02:11:41;10.68;;;5.65;;
39032;SDS011;24794;51.982;5.878;2023-07-22T02:12:42;9.85;;;5.93;;
39032;SDS011;24794;51.982;5.878;2023-07-22T02:13:42;9.00;;;5.78;;
39032;SDS011;24794;51.982;5.878;2023-07-22T02:14:42;8.32;;;5.88;;
39032;SDS011;24794;51.982;5.878;2023-07-22T02:15:43;8.63;;;6.00;;
39032;SDS011;24794;51.982;5.878;2023-07-22T02:16:44;9.48;;;6.00;;
39032;SDS011;24794;51.982;5.878;2023-07-22T02:17:44;9.88;;;6.13;;
39032;SDS011;24794;51.982;5.878;2023-07-22T02:18:45;9.48;;;5.78;;
39032;SDS011;24794;51.982;5.878;2023-07-22T02:19:45;10.07;;;6.45;;
39032;SDS011;24794;51.982;5.878;2023-07-22T02:20:46;9.63;;;6.80;;
39032;SDS011;24794;51.982;5.878;2023-07-22T02:21:46;8.82;;;6.32;;
39032;SDS011;24794;51.982;5.878;2023-07-22T02:22:48;9.15;;;5.97;;
39032;SDS011;24794;51.982;5.878;2023-07-22T02:23:48;9.13;;;6.03;;
39032;SDS011;24794;51.982;5.878;2023-07-22T02:24:49;9.23;;;6.40;;
39032;SDS011;24794;51.982;5.878;2023-07-22T02:25:52;9.23;;;6.22;;
39032;SDS011;24794;51.982;5.878;2023-07-22T02:26:53;10.20;;;6.63;;
39032;SDS011;24794;51.982;5.878;2023-07-22T02:27:54;9.80;;;6.63;;
39032;SDS011;24794;51.982;5.878;2023-07-22T02:28:54;10.95;;;6.95;;
39032;SDS011;24794;51.982;5.878;2023-07-22T02:29:55;8.88;;;6.10;;
39032;SDS011;24794;51.982;5.878;2023-07-22T02:30:59;9.73;;;6.38;;
39032;SDS011;24794;51.982;5.878;2023-07-22T02:32:02;12.20;;;6.78;;
39032;SDS011;24794;51.982;5.878;2023-07-22T02:33:05;11.40;;;7.03;;
39032;SDS011;24794;51.982;5.878;2023-07-22T02:34:05;9.38;;;6.30;;
39032;SDS011;24794;51.982;5.878;2023-07-22T02:35:06;12.93;;;6.95;;
39032;SDS011;24794;51.982;5.878;2023-07-22T02:36:07;10.02;;;6.43;;
39032;SDS011;24794;51.982;5.878;2023-07-22T02:37:08;10.57;;;6.70;;
39032;SDS011;24794;51.982;5.878;2023-07-22T02:38:09;9.50;;;6.00;;
39032;SDS011;24794;51.982;5.878;2023-07-22T02:39:10;10.50;;;6.30;;
39032;SDS011;24794;51.982;5.878;2023-07-22T02:40:10;10.93;;;6.65;;
39032;SDS011;24794;51.982;5.878;2023-07-22T02:41:11;9.75;;;6.50;;
39032;SDS011;24794;51.982;5.878;2023-07-22T02:42:11;11.45;;;6.90;;
39032;SDS011;24794;51.982;5.878;2023-07-22T02:43:12;9.93;;;6.90;;
39032;SDS011;24794;51.982;5.878;2023-07-22T02:44:12;10.55;;;6.80;;
39032;SDS011;24794;51.982;5.878;2023-07-22T02:45:13;10.80;;;7.07;;
39032;SDS011;24794;51.982;5.878;2023-07-22T02:46:14;12.05;;;6.93;;
39032;SDS011;24794;51.982;5.878;2023-07-22T02:47:14;12.82;;;7.30;;
39032;SDS011;24794;51.982;5.878;2023-07-22T02:48:14;12.35;;;6.90;;
39032;SDS011;24794;51.982;5.878;2023-07-22T02:49:15;12.02;;;7.38;;
39032;SDS011;24794;51.982;5.878;2023-07-22T02:50:15;11.50;;;7.07;;
39032;SDS011;24794;51.982;5.878;2023-07-22T02:51:16;12.75;;;7.60;;
39032;SDS011;24794;51.982;5.878;2023-07-22T02:52:16;12.07;;;7.28;;
39032;SDS011;24794;51.982;5.878;2023-07-22T02:53:17;11.32;;;6.82;;
39032;SDS011;24794;51.982;5.878;2023-07-22T02:54:19;11.77;;;7.45;;
39032;SDS011;24794;51.982;5.878;2023-07-22T02:55:19;13.77;;;7.25;;
39032;SDS011;24794;51.982;5.878;2023-07-22T02:56:20;11.30;;;7.90;;
39032;SDS011;24794;51.982;5.878;2023-07-22T02:57:20;10.73;;;7.25;;
39032;SDS011;24794;51.982;5.878;2023-07-22T02:58:21;11.45;;;7.43;;
39032;SDS011;24794;51.982;5.878;2023-07-22T02:59:21;12.70;;;7.72;;
39032;SDS011;24794;51.982;5.878;2023-07-22T03:00:22;11.65;;;7.72;;
39032;SDS011;24794;51.982;5.878;2023-07-22T03:01:25;11.45;;;7.55;;
39032;SDS011;24794;51.982;5.878;2023-07-22T03:02:26;14.23;;;7.70;;
39032;SDS011;24794;51.982;5.878;2023-07-22T03:03:26;9.90;;;7.22;;
39032;SDS011;24794;51.982;5.878;2023-07-22T03:04:27;11.20;;;7.15;;
39032;SDS011;24794;51.982;5.878;2023-07-22T03:05:28;11.68;;;7.50;;
39032;SDS011;24794;51.982;5.878;2023-07-22T03:06:29;11.48;;;7.28;;
39032;SDS011;24794;51.982;5.878;2023-07-22T03:07:31;13.00;;;8.00;;
39032;SDS011;24794;51.982;5.878;2023-07-22T03:08:31;12.18;;;7.90;;
39032;SDS011;24794;51.982;5.878;2023-07-22T03:09:32;13.75;;;7.90;;
39032;SDS011;24794;51.982;5.878;2023-07-22T03:10:32;10.23;;;7.32;;
39032;SDS011;24794;51.982;5.878;2023-07-22T03:11:33;14.32;;;8.48;;
39032;SDS011;24794;51.982;5.878;2023-07-22T03:12:35;12.32;;;8.15;;
39032;SDS011;24794;51.982;5.878;2023-07-22T03:13:36;11.38;;;7.70;;
39032;SDS011;24794;51.982;5.878;2023-07-22T03:14:36;13.70;;;7.70;;
39032;SDS011;24794;51.982;5.878;2023-07-22T03:15:37;13.25;;;8.27;;
39032;SDS011;24794;51.982;5.878;2023-07-22T03:16:37;12.15;;;8.10;;
39032;SDS011;24794;51.982;5.878;2023-07-22T03:17:38;12.15;;;7.90;;
39032;SDS011;24794;51.982;5.878;2023-07-22T03:18:41;12.05;;;8.52;;
39032;SDS011;24794;51.982;5.878;2023-07-22T03:19:43;15.43;;;8.45;;
39032;SDS011;24794;51.982;5.878;2023-07-22T03:20:43;11.90;;;8.15;;
39032;SDS011;24794;51.982;5.878;2023-07-22T03:21:44;12.77;;;8.23;;
39032;SDS011;24794;51.982;5.878;2023-07-22T03:22:45;11.70;;;7.90;;
39032;SDS011;24794;51.982;5.878;2023-07-22T03:23:46;12.82;;;8.32;;
39032;SDS011;24794;51.982;5.878;2023-07-22T03:24:46;13.38;;;8.50;;
39032;SDS011;24794;51.982;5.878;2023-07-22T03:25:47;12.45;;;8.35;;
39032;SDS011;24794;51.982;5.878;2023-07-22T03:26:48;12.65;;;8.32;;
39032;SDS011;24794;51.982;5.878;2023-07-22T03:27:49;11.30;;;7.45;;
39032;SDS011;24794;51.982;5.878;2023-07-22T03:28:49;13.35;;;8.25;;
39032;SDS011;24794;51.982;5.878;2023-07-22T03:29:50;13.52;;;8.23;;
39032;SDS011;24794;51.982;5.878;2023-07-22T03:30:50;13.18;;;8.50;;
39032;SDS011;24794;51.982;5.878;2023-07-22T03:31:51;12.60;;;8.30;;
39032;SDS011;24794;51.982;5.878;2023-07-22T03:32:51;13.57;;;8.90;;
39032;SDS011;24794;51.982;5.878;2023-07-22T03:33:52;13.32;;;8.75;;
39032;SDS011;24794;51.982;5.878;2023-07-22T03:34:52;14.98;;;9.00;;
39032;SDS011;24794;51.982;5.878;2023-07-22T03:35:53;13.30;;;8.70;;
39032;SDS011;24794;51.982;5.878;2023-07-22T03:36:53;13.93;;;9.02;;
39032;SDS011;24794;51.982;5.878;2023-07-22T03:37:54;13.05;;;8.07;;
39032;SDS011;24794;51.982;5.878;2023-07-22T03:38:55;14.65;;;9.10;;
39032;SDS011;24794;51.982;5.878;2023-07-22T03:39:55;13.32;;;8.75;;
39032;SDS011;24794;51.982;5.878;2023-07-22T03:40:56;13.95;;;8.65;;
39032;SDS011;24794;51.982;5.878;2023-07-22T03:41:56;13.00;;;9.15;;
39032;SDS011;24794;51.982;5.878;2023-07-22T03:42:57;16.83;;;8.77;;
39032;SDS011;24794;51.982;5.878;2023-07-22T03:43:58;12.85;;;8.57;;
39032;SDS011;24794;51.982;5.878;2023-07-22T03:44:58;13.85;;;9.00;;
39032;SDS011;24794;51.982;5.878;2023-07-22T03:45:58;14.95;;;8.65;;
39032;SDS011;24794;51.982;5.878;2023-07-22T03:46:59;13.63;;;9.00;;
39032;SDS011;24794;51.982;5.878;2023-07-22T03:48:00;13.02;;;8.88;;
39032;SDS011;24794;51.982;5.878;2023-07-22T03:49:00;14.25;;;9.38;;
39032;SDS011;24794;51.982;5.878;2023-07-22T03:50:01;15.02;;;9.43;;
39032;SDS011;24794;51.982;5.878;2023-07-22T03:51:02;16.13;;;9.20;;
39032;SDS011;24794;51.982;5.878;2023-07-22T03:52:03;14.95;;;8.98;;
39032;SDS011;24794;51.982;5.878;2023-07-22T03:53:03;14.43;;;9.10;;
39032;SDS011;24794;51.982;5.878;2023-07-22T03:54:04;15.05;;;10.40;;
39032;SDS011;24794;51.982;5.878;2023-07-22T03:55:04;16.13;;;10.60;;
39032;SDS011;24794;51.982;5.878;2023-07-22T03:56:05;15.05;;;9.45;;
39032;SDS011;24794;51.982;5.878;2023-07-22T03:57:06;16.42;;;10.07;;
39032;SDS011;24794;51.982;5.878;2023-07-22T03:58:06;16.92;;;9.75;;
39032;SDS011;24794;51.982;5.878;2023-07-22T03:59:07;15.05;;;9.85;;
39032;SDS011;24794;51.982;5.878;2023-07-22T04:00:08;15.68;;;9.73;;
39032;SDS011;24794;51.982;5.878;2023-07-22T04:01:12;18.05;;;10.68;;
39032;SDS011;24794;51.982;5.878;2023-07-22T04:02:12;14.65;;;9.25;;
39032;SDS011;24794;51.982;5.878;2023-07-22T04:03:13;15.77;;;9.27;;
39032;SDS011;24794;51.982;5.878;2023-07-22T04:04:13;14.73;;;9.65;;
39032;SDS011;24794;51.982;5.878;2023-07-22T04:05:14;13.93;;;9.50;;
39032;SDS011;24794;51.982;5.878;2023-07-22T04:06:14;15.48;;;9.63;;
39032;SDS011;24794;51.982;5.878;2023-07-22T04:07:15;13.77;;;9.32;;
39032;SDS011;24794;51.982;5.878;2023-07-22T04:08:15;15.05;;;9.48;;
39032;SDS011;24794;51.982;5.878;2023-07-22T04:09:16;15.82;;;9.70;;
39032;SDS011;24794;51.982;5.878;2023-07-22T04:10:16;14.75;;;9.32;;
39032;SDS011;24794;51.982;5.878;2023-07-22T04:11:17;16.30;;;9.25;;
39032;SDS011;24794;51.982;5.878;2023-07-22T04:12:17;13.68;;;8.85;;
39032;SDS011;24794;51.982;5.878;2023-07-22T04:13:18;13.18;;;9.18;;
39032;SDS011;24794;51.982;5.878;2023-07-22T04:14:18;15.70;;;9.77;;
39032;SDS011;24794;51.982;5.878;2023-07-22T04:15:19;13.70;;;9.05;;
39032;SDS011;24794;51.982;5.878;2023-07-22T04:16:19;15.60;;;9.52;;
39032;SDS011;24794;51.982;5.878;2023-07-22T04:17:20;15.30;;;9.40;;
39032;SDS011;24794;51.982;5.878;2023-07-22T04:18:21;15.02;;;9.27;;
39032;SDS011;24794;51.982;5.878;2023-07-22T04:19:21;14.13;;;9.15;;
39032;SDS011;24794;51.982;5.878;2023-07-22T04:20:22;14.32;;;8.98;;
39032;SDS011;24794;51.982;5.878;2023-07-22T04:21:24;13.95;;;9.05;;
39032;SDS011;24794;51.982;5.878;2023-07-22T04:22:24;15.55;;;9.32;;
39032;SDS011;24794;51.982;5.878;2023-07-22T04:23:25;16.20;;;9.57;;
39032;SDS011;24794;51.982;5.878;2023-07-22T04:24:26;14.20;;;8.95;;
39032;SDS011;24794;51.982;5.878;2023-07-22T04:25:26;14.98;;;9.20;;
39032;SDS011;24794;51.982;5.878;2023-07-22T04:26:27;14.75;;;9.73;;
39032;SDS011;24794;51.982;5.878;2023-07-22T04:27:27;16.08;;;9.27;;
39032;SDS011;24794;51.982;5.878;2023-07-22T04:28:28;15.57;;;9.68;;
39032;SDS011;24794;51.982;5.878;2023-07-22T04:29:29;16.08;;;9.73;;
39032;SDS011;24794;51.982;5.878;2023-07-22T04:30:31;15.15;;;9.20;;
39032;SDS011;24794;51.982;5.878;2023-07-22T04:31:33;14.73;;;9.50;;
39032;SDS011;24794;51.982;5.878;2023-07-22T04:32:33;16.05;;;10.15;;
39032;SDS011;24794;51.982;5.878;2023-07-22T04:33:34;15.40;;;9.95;;
39032;SDS011;24794;51.982;5.878;2023-07-22T04:34:34;13.30;;;8.80;;
39032;SDS011;24794;51.982;5.878;2023-07-22T04:35:36;14.43;;;9.40;;
39032;SDS011;24794;51.982;5.878;2023-07-22T04:36:37;15.35;;;9.07;;
39032;SDS011;24794;51.982;5.878;2023-07-22T04:37:38;17.13;;;9.38;;
39032;SDS011;24794;51.982;5.878;2023-07-22T04:38:39;13.95;;;9.38;;
39032;SDS011;24794;51.982;5.878;2023-07-22T04:39:39;14.70;;;9.55;;
39032;SDS011;24794;51.982;5.878;2023-07-22T04:40:43;16.02;;;9.55;;
39032;SDS011;24794;51.982;5.878;2023-07-22T04:41:44;14.77;;;9.35;;
39032;SDS011;24794;51.982;5.878;2023-07-22T04:42:44;16.65;;;9.23;;
39032;SDS011;24794;51.982;5.878;2023-07-22T04:43:46;19.58;;;11.05;;
39032;SDS011;24794;51.982;5.878;2023-07-22T04:44:47;16.73;;;10.07;;
39032;SDS011;24794;51.982;5.878;2023-07-22T04:45:48;17.20;;;10.63;;
39032;SDS011;24794;51.982;5.878;2023-07-22T04:46:49;17.73;;;10.63;;
39032;SDS011;24794;51.982;5.878;2023-07-22T04:47:50;18.52;;;11.13;;
39032;SDS011;24794;51.982;5.878;2023-07-22T04:48:51;18.75;;;10.40;;
39032;SDS011;24794;51.982;5.878;2023-07-22T04:49:55;19.83;;;11.63;;
39032;SDS011;24794;51.982;5.878;2023-07-22T04:50:55;17.90;;;11.18;;
39032;SDS011;24794;51.982;5.878;2023-07-22T04:51:56;16.98;;;10.68;;
39032;SDS011;24794;51.982;5.878;2023-07-22T04:52:56;21.15;;;11.85;;
39032;SDS011;24794;51.982;5.878;2023-07-22T04:53:57;16.23;;;10.05;;
39032;SDS011;24794;51.982;5.878;2023-07-22T04:54:57;20.90;;;11.35;;
39032;SDS011;24794;51.982;5.878;2023-07-22T04:55:58;22.08;;;12.18;;
39032;SDS011;24794;51.982;5.878;2023-07-22T04:56:58;19.50;;;12.40;;
39032;SDS011;24794;51.982;5.878;2023-07-22T04:57:59;20.27;;;11.77;;
39032;SDS011;24794;51.982;5.878;2023-07-22T04:59:00;22.88;;;13.15;;
39032;SDS011;24794;51.982;5.878;2023-07-22T05:00:01;23.00;;;12.93;;
39032;SDS011;24794;51.982;5.878;2023-07-22T05:01:05;26.15;;;14.02;;
39032;SDS011;24794;51.982;5.878;2023-07-22T05:02:05;23.67;;;13.65;;
39032;SDS011;24794;51.982;5.878;2023-07-22T05:03:06;27.42;;;14.25;;
39032;SDS011;24794;51.982;5.878;2023-07-22T05:04:06;21.73;;;12.57;;
39032;SDS011;24794;51.982;5.878;2023-07-22T05:05:07;18.60;;;11.90;;
39032;SDS011;24794;51.982;5.878;2023-07-22T05:06:08;24.10;;;13.48;;
39032;SDS011;24794;51.982;5.878;2023-07-22T05:07:08;23.55;;;13.98;;
39032;SDS011;24794;51.982;5.878;2023-07-22T05:08:09;22.00;;;13.65;;
39032;SDS011;24794;51.982;5.878;2023-07-22T05:09:10;23.50;;;14.57;;
39032;SDS011;24794;51.982;5.878;2023-07-22T05:10:10;21.65;;;12.52;;
39032;SDS011;24794;51.982;5.878;2023-07-22T05:11:12;23.63;;;13.13;;
39032;SDS011;24794;51.982;5.878;2023-07-22T05:12:12;19.30;;;11.82;;
39032;SDS011;24794;51.982;5.878;2023-07-22T05:13:13;22.02;;;12.57;;
39032;SDS011;24794;51.982;5.878;2023-07-22T05:14:13;20.85;;;13.00;;
39032;SDS011;24794;51.982;5.878;2023-07-22T05:15:14;21.27;;;12.60;;
39032;SDS011;24794;51.982;5.878;2023-07-22T05:16:15;24.67;;;13.60;;
39032;SDS011;24794;51.982;5.878;2023-07-22T05:17:16;24.40;;;13.80;;
39032;SDS011;24794;51.982;5.878;2023-07-22T05:18:16;21.98;;;13.60;;
39032;SDS011;24794;51.982;5.878;2023-07-22T05:19:17;22.83;;;13.18;;
39032;SDS011;24794;51.982;5.878;2023-07-22T05:20:18;25.88;;;14.68;;
39032;SDS011;24794;51.982;5.878;2023-07-22T05:21:19;24.05;;;13.95;;
39032;SDS011;24794;51.982;5.878;2023-07-22T05:22:19;21.58;;;12.55;;
39032;SDS011;24794;51.982;5.878;2023-07-22T05:23:20;20.98;;;12.57;;
39032;SDS011;24794;51.982;5.878;2023-07-22T05:24:21;22.45;;;13.63;;
39032;SDS011;24794;51.982;5.878;2023-07-22T05:25:21;25.23;;;14.57;;
39032;SDS011;24794;51.982;5.878;2023-07-22T05:26:22;25.90;;;14.25;;
39032;SDS011;24794;51.982;5.878;2023-07-22T05:27:23;22.65;;;13.50;;
39032;SDS011;24794;51.982;5.878;2023-07-22T05:28:25;23.05;;;13.80;;
39032;SDS011;24794;51.982;5.878;2023-07-22T05:29:25;21.70;;;14.00;;
39032;SDS011;24794;51.982;5.878;2023-07-22T05:30:26;21.70;;;13.27;;
39032;SDS011;24794;51.982;5.878;2023-07-22T05:31:26;22.48;;;12.40;;
39032;SDS011;24794;51.982;5.878;2023-07-22T05:32:30;19.13;;;11.23;;
39032;SDS011;24794;51.982;5.878;2023-07-22T05:33:31;21.55;;;11.00;;
39032;SDS011;24794;51.982;5.878;2023-07-22T05:34:31;18.63;;;11.50;;
39032;SDS011;24794;51.982;5.878;2023-07-22T05:35:32;17.67;;;11.15;;
39032;SDS011;24794;51.982;5.878;2023-07-22T05:36:32;20.35;;;11.90;;
39032;SDS011;24794;51.982;5.878;2023-07-22T05:37:33;24.02;;;12.85;;
39032;SDS011;24794;51.982;5.878;2023-07-22T05:38:33;24.00;;;13.63;;
39032;SDS011;24794;51.982;5.878;2023-07-22T05:39:34;22.30;;;14.20;;
39032;SDS011;24794;51.982;5.878;2023-07-22T05:40:34;25.42;;;14.30;;
39032;SDS011;24794;51.982;5.878;2023-07-22T05:41:35;25.30;;;15.55;;
39032;SDS011;24794;51.982;5.878;2023-07-22T05:42:35;28.02;;;14.82;;
39032;SDS011;24794;51.982;5.878;2023-07-22T05:43:36;26.10;;;15.07;;
39032;SDS011;24794;51.982;5.878;2023-07-22T05:44:36;25.92;;;15.38;;
39032;SDS011;24794;51.982;5.878;2023-07-22T05:45:37;25.25;;;14.90;;
39032;SDS011;24794;51.982;5.878;2023-07-22T05:46:37;25.27;;;15.07;;
39032;SDS011;24794;51.982;5.878;2023-07-22T05:47:38;28.00;;;16.20;;
39032;SDS011;24794;51.982;5.878;2023-07-22T05:48:39;23.90;;;14.88;;
39032;SDS011;24794;51.982;5.878;2023-07-22T05:49:39;24.73;;;14.77;;
39032;SDS011;24794;51.982;5.878;2023-07-22T05:50:40;29.08;;;15.43;;
39032;SDS011;24794;51.982;5.878;2023-07-22T05:51:40;24.73;;;14.63;;
39032;SDS011;24794;51.982;5.878;2023-07-22T05:52:41;22.77;;;14.18;;
39032;SDS011;24794;51.982;5.878;2023-07-22T05:53:42;25.85;;;15.05;;
39032;SDS011;24794;51.982;5.878;2023-07-22T05:54:43;32.65;;;16.20;;
39032;SDS011;24794;51.982;5.878;2023-07-22T05:55:43;30.40;;;16.70;;
39032;SDS011;24794;51.982;5.878;2023-07-22T05:56:44;27.02;;;15.95;;
39032;SDS011;24794;51.982;5.878;2023-07-22T05:57:44;27.00;;;16.17;;
39032;SDS011;24794;51.982;5.878;2023-07-22T05:58:45;23.00;;;14.50;;
39032;SDS011;24794;51.982;5.878;2023-07-22T05:59:45;26.30;;;14.82;;
39032;SDS011;24794;51.982;5.878;2023-07-22T06:00:46;24.58;;;15.45;;
39032;SDS011;24794;51.982;5.878;2023-07-22T06:01:46;29.20;;;15.38;;